»·PEaware :: SWA4652 KSAN-KPHX

SWA4652 :: KSAN-KPHX

FLIGHT INFORMATION

Flight Status: Arrived
Operator:
Southwest Airlines
More flights by this operator :: More flights under this callsign
Pilot: Anonymous 15639 (15639)
Aircraft: BOEING 737-800
(B738)
More flights by this aircraft type
Origin: KSAN San Diego Intl-Lindbergh
United States
Destination: KPHX Phoenix Sky Harbor Intl
United States
More flights between these airports :: More routes between these airports
Route: +ZZOOO2 IPL J18 BZA HOGGZ HYDRR1
File this flight plan on PilotEdge
Remarks:
Altitude:
(Current/Filed)
35,000ft
Speed:
(Current/Filed)
454kts
Departed: 15-Apr-18 01:38 PM
Arrived: 15-Apr-18 02:32 PM
Distance/Time
Traveled:
264nm/0:54
Distance/Time
To Go:
Arrived

Flight Plot

Page will automatically refresh every two minutes.

Flight plan parsing failed; only flown route is shown


Map Options




Map Legend


Flown Route
Filed Route
Departure Airport
Arrival Airport
Navaid (VOR, NDB)
Fix

Horizontal Profiles

Position Reports

Time Latitude Longitude Heading Altitude Ground
Speed
15-Apr-18 13:08 32.733417 -117.200742 264 25ft 0kts
15-Apr-18 13:09 32.733417 -117.200742 264 25ft 0kts
15-Apr-18 13:10 32.733417 -117.200742 264 25ft 0kts
15-Apr-18 13:11 32.733417 -117.200742 264 25ft 0kts
15-Apr-18 13:12 32.733417 -117.200742 264 25ft 0kts
15-Apr-18 13:13 32.733417 -117.200742 264 25ft 0kts
15-Apr-18 13:14 32.733417 -117.200742 264 25ft 0kts
15-Apr-18 13:15 32.733417 -117.200742 264 25ft 0kts
15-Apr-18 13:16 32.733417 -117.200742 264 25ft 0kts
15-Apr-18 13:17 32.733417 -117.200742 264 25ft 0kts
15-Apr-18 13:18 32.733417 -117.200742 264 25ft 0kts
15-Apr-18 13:19 32.733417 -117.200742 264 25ft 0kts
15-Apr-18 13:20 32.733417 -117.200742 264 25ft 0kts
15-Apr-18 13:21 32.733417 -117.200742 264 25ft 0kts
15-Apr-18 13:22 32.733417 -117.200742 264 25ft 0kts
15-Apr-18 13:23 32.733417 -117.200742 264 25ft 0kts
15-Apr-18 13:24 32.733417 -117.200742 264 25ft 0kts
15-Apr-18 13:25 32.733417 -117.200742 264 25ft 0kts
15-Apr-18 13:26 32.733452 -117.200343 264 24ft 2kts
15-Apr-18 13:27 32.733210 -117.199860 9 24ft 0kts
15-Apr-18 13:28 32.733909 -117.199696 12 23ft 0kts
15-Apr-18 13:29 32.733910 -117.199695 12 23ft 0kts
15-Apr-18 13:30 32.733910 -117.199695 12 23ft 0kts
15-Apr-18 13:31 32.734372 -117.199562 16 22ft 7kts
15-Apr-18 13:32 32.734273 -117.196889 106 24ft 13kts
15-Apr-18 13:33 32.733035 -117.191796 105 24ft 17kts
15-Apr-18 13:34 32.731850 -117.186865 106 21ft 20kts
15-Apr-18 13:35 32.730377 -117.180870 106 21ft 16kts
15-Apr-18 13:36 32.729563 -117.176336 70 21ft 7kts
15-Apr-18 13:37 32.733518 -117.189380 286 26ft 151kts
15-Apr-18 13:38 32.748926 -117.248008 284 2247ft 229kts
15-Apr-18 13:39 32.739029 -117.319511 213 5307ft 267kts
15-Apr-18 13:40 32.669018 -117.303806 133 8609ft 295kts
15-Apr-18 13:41 32.626270 -117.218007 99 11189ft 333kts
15-Apr-18 13:42 32.617134 -117.105903 97 14095ft 352kts
15-Apr-18 13:43 32.607098 -116.987846 98 17038ft 368kts
15-Apr-18 13:44 32.607976 -116.864946 76 19726ft 387kts
15-Apr-18 13:45 32.632108 -116.738205 83 22083ft 404kts
15-Apr-18 13:46 32.645906 -116.602600 84 23079ft 425kts
15-Apr-18 13:47 32.659569 -116.463408 84 25363ft 429kts
15-Apr-18 13:48 32.673282 -116.321076 85 27227ft 444kts
15-Apr-18 13:49 32.687341 -116.173920 85 28894ft 458kts
15-Apr-18 13:50 32.701488 -116.023171 85 30813ft 460kts
15-Apr-18 13:51 32.715458 -115.872754 85 32616ft 459kts
15-Apr-18 13:52 32.729184 -115.722778 85 34209ft 458kts
15-Apr-18 13:53 32.742779 -115.571774 85 35001ft 473kts
15-Apr-18 13:54 32.751663 -115.411257 90 34987ft 497kts
15-Apr-18 13:55 32.755507 -115.247517 90 34986ft 498kts
15-Apr-18 13:56 32.759326 -115.083533 90 34990ft 497kts
15-Apr-18 13:57 32.762860 -114.919593 90 34991ft 497kts
15-Apr-18 13:58 32.765947 -114.755698 89 34840ft 500kts
15-Apr-18 13:59 32.769068 -114.591188 90 33621ft 501kts
15-Apr-18 14:00 32.771229 -114.424571 90 31004ft 503kts
15-Apr-18 14:01 32.773215 -114.263699 90 28380ft 498kts
15-Apr-18 14:02 32.775026 -114.099437 90 25709ft 501kts
15-Apr-18 14:03 32.789354 -113.934153 82 24992ft 507kts
15-Apr-18 14:04 32.806400 -113.778345 82 24975ft 438kts
15-Apr-18 14:05 32.847495 -113.644460 47 25006ft 438kts
15-Apr-18 14:06 32.929242 -113.534620 46 23107ft 450kts
15-Apr-18 14:07 33.010381 -113.425887 46 20788ft 424kts
15-Apr-18 14:08 33.085601 -113.325976 46 19198ft 393kts
15-Apr-18 14:09 33.159580 -113.229808 46 17644ft 399kts
15-Apr-18 14:10 33.233071 -113.135144 46 16122ft 383kts
15-Apr-18 14:11 33.302498 -113.045973 46 15080ft 357kts
15-Apr-18 14:12 33.331565 -112.943231 121 13966ft 339kts
15-Apr-18 14:13 33.283999 -112.850014 108 12611ft 326kts
15-Apr-18 14:14 33.304318 -112.748916 64 11207ft 314kts
15-Apr-18 14:15 33.339832 -112.658767 65 10979ft 292kts
15-Apr-18 14:16 33.374218 -112.570178 65 9704ft 279kts
15-Apr-18 14:17 33.405356 -112.488636 67 7977ft 253kts
15-Apr-18 14:18 33.410381 -112.407611 99 7981ft 246kts
15-Apr-18 14:19 33.400694 -112.326761 100 7980ft 246kts
15-Apr-18 14:20 33.390781 -112.245526 100 7976ft 248kts
15-Apr-18 14:21 33.380066 -112.163979 100 7799ft 246kts
15-Apr-18 14:22 33.368381 -112.083060 99 6858ft 244kts
15-Apr-18 14:23 33.360763 -112.003501 88 6007ft 238kts
15-Apr-18 14:24 33.361852 -111.925189 88 5283ft 229kts
15-Apr-18 14:25 33.364703 -111.849870 82 3919ft 225kts
15-Apr-18 14:26 33.412143 -111.815067 354 2980ft 223kts
15-Apr-18 14:27 33.441328 -111.858523 246 3002ft 188kts
15-Apr-18 14:28 33.429107 -111.916030 267 2598ft 164kts
15-Apr-18 14:29 33.428761 -111.967259 270 1725ft 149kts
15-Apr-18 14:30 33.428832 -112.013787 269 1139ft 69kts
15-Apr-18 14:31 33.429355 -112.021475 335 1139ft 6kts
15-Apr-18 14:32 33.429921 -112.021103 79 1139ft 3kts
15-Apr-18 14:33 33.430018 -112.016547 72 1139ft 16kts
15-Apr-18 14:34 33.431884 -112.015615 22 1139ft 9kts
15-Apr-18 14:35 33.432875 -112.012892 90 1139ft 9kts
15-Apr-18 14:36 33.432871 -112.009393 90 1139ft 11kts
15-Apr-18 14:37 33.432871 -112.005526 89 1139ft 12kts
15-Apr-18 14:38 33.432829 -112.001361 90 1139ft 12kts
15-Apr-18 14:39 33.433127 -111.999080 11 1139ft 3kts
15-Apr-18 14:40 33.433403 -111.999015 11 1139ft 0kts
15-Apr-18 14:41 33.433403 -111.999015 11 1139ft 0kts

Navigation Log

Ident Type
Flight plan parsing failed, navigation log unavailable